createdAt,value
2017-08-02T00:00:35.310Z,0
2017-08-02T00:01:36.715Z,0
2017-08-02T00:02:38.139Z,0
2017-08-02T00:03:39.629Z,0
2017-08-02T00:04:41.059Z,0
2017-08-02T00:05:42.461Z,0
2017-08-02T00:06:43.950Z,0
2017-08-02T00:07:45.364Z,0
2017-08-02T00:08:46.781Z,0
2017-08-02T00:09:48.294Z,0
2017-08-02T00:10:49.699Z,0
2017-08-02T00:11:51.135Z,0
2017-08-02T00:12:52.593Z,0
2017-08-02T00:13:53.991Z,0
2017-08-02T00:14:55.394Z,0
2017-08-02T00:15:56.914Z,0
2017-08-02T00:16:58.350Z,0
2017-08-02T00:17:59.754Z,0
2017-08-02T00:19:01.499Z,0
2017-08-02T00:20:02.901Z,0
2017-08-02T00:21:04.307Z,0
2017-08-02T00:22:05.754Z,0
2017-08-02T00:23:07.172Z,0
2017-08-02T00:24:08.621Z,0
2017-08-02T00:25:10.024Z,0
2017-08-02T00:26:11.447Z,0
2017-08-02T00:27:12.962Z,0
2017-08-02T00:28:14.378Z,0
2017-08-02T00:29:15.785Z,0
2017-08-02T00:30:17.287Z,0
2017-08-02T00:31:18.718Z,0
2017-08-02T00:32:20.124Z,0
2017-08-02T00:33:21.623Z,0
2017-08-02T00:34:23.023Z,0
2017-08-02T00:35:24.429Z,0
2017-08-02T00:36:25.976Z,0
2017-08-02T00:37:27.380Z,0
2017-08-02T00:38:29.031Z,0
2017-08-02T00:39:30.435Z,0
2017-08-02T00:40:31.845Z,0
2017-08-02T00:41:33.384Z,0
2017-08-02T00:42:34.794Z,0
2017-08-02T00:43:36.196Z,0
2017-08-02T00:44:37.651Z,0
2017-08-02T00:45:39.095Z,0
2017-08-02T00:46:40.501Z,0
2017-08-02T00:47:42.010Z,0
2017-08-02T00:48:43.407Z,0
2017-08-02T00:49:44.855Z,0
2017-08-02T00:50:46.259Z,0
2017-08-02T00:51:47.680Z,0
2017-08-02T00:52:49.242Z,0
2017-08-02T00:53:50.709Z,0
2017-08-02T00:54:52.137Z,0
2017-08-02T00:55:53.702Z,0
2017-08-02T00:56:55.116Z,0
2017-08-02T00:57:56.584Z,0
2017-08-02T00:58:57.986Z,0
2017-08-02T00:59:59.476Z,0
2017-08-02T01:01:00.881Z,0
2017-08-02T01:02:02.309Z,0
2017-08-02T01:03:03.782Z,0
2017-08-02T01:04:05.196Z,0
2017-08-02T01:05:06.634Z,0
2017-08-02T01:06:08.101Z,0
2017-08-02T01:07:09.545Z,0
2017-08-02T01:08:10.943Z,0
2017-08-02T01:09:12.454Z,0
2017-08-02T01:10:13.858Z,0
2017-08-02T01:11:15.261Z,0
2017-08-02T01:12:16.743Z,0
2017-08-02T01:13:18.150Z,0
2017-08-02T01:14:19.566Z,0
2017-08-02T01:15:21.080Z,0
2017-08-02T01:16:22.507Z,0
2017-08-02T01:17:23.906Z,0
2017-08-02T01:18:25.386Z,0
2017-08-02T01:19:26.792Z,0
2017-08-02T01:20:28.267Z,0
2017-08-02T01:21:29.715Z,0
2017-08-02T01:22:31.250Z,0
2017-08-02T01:23:32.694Z,0
2017-08-02T01:24:34.224Z,0
2017-08-02T01:25:35.626Z,0
2017-08-02T01:26:37.030Z,0
2017-08-02T01:27:38.554Z,0
2017-08-02T01:28:39.989Z,0
2017-08-02T01:29:41.390Z,0
2017-08-02T01:30:43.020Z,0
2017-08-02T01:31:44.419Z,0
2017-08-02T01:32:45.822Z,0
2017-08-02T01:33:47.539Z,0
2017-08-02T01:34:48.943Z,0
2017-08-02T01:35:50.374Z,0
2017-08-02T01:36:51.925Z,0
2017-08-02T01:37:53.343Z,0
2017-08-02T01:38:54.808Z,0
2017-08-02T01:39:56.228Z,0
2017-08-02T01:40:57.700Z,0
2017-08-02T01:41:59.105Z,0
2017-08-02T01:43:00.684Z,0
2017-08-02T01:44:02.092Z,0
2017-08-02T01:45:03.759Z,0
2017-08-02T01:46:05.161Z,0
2017-08-02T01:47:06.845Z,0
2017-08-02T01:48:08.250Z,0
2017-08-02T01:49:09.943Z,0
2017-08-02T01:50:11.386Z,0
2017-08-02T01:51:13.035Z,0
2017-08-02T01:52:14.416Z,0
2017-08-02T01:53:16.107Z,0
2017-08-02T01:54:17.502Z,0
2017-08-02T01:55:19.213Z,0
2017-08-02T01:56:20.616Z,0
2017-08-02T01:57:22.095Z,0
2017-08-02T01:58:23.504Z,0
2017-08-02T01:59:25.153Z,0
2017-08-02T02:00:26.556Z,0
2017-08-02T02:01:28.236Z,0
2017-08-02T02:02:29.673Z,0
2017-08-02T02:03:31.321Z,0
2017-08-02T02:04:32.742Z,0
2017-08-02T02:05:34.409Z,0
2017-08-02T02:06:35.810Z,0
2017-08-02T02:07:37.465Z,0
2017-08-02T02:08:38.871Z,0
2017-08-02T02:09:40.274Z,0
2017-08-02T02:10:41.695Z,0
2017-08-02T02:11:43.102Z,0
2017-08-02T02:12:44.589Z,0
2017-08-02T02:13:45.992Z,0
2017-08-02T02:14:47.393Z,0
2017-08-02T02:15:48.811Z,0
2017-08-02T02:16:50.213Z,0
2017-08-02T02:17:51.632Z,0
2017-08-02T02:18:54.360Z,0
2017-08-02T02:19:55.764Z,0
2017-08-02T02:20:57.446Z,0
2017-08-02T02:21:58.883Z,0
2017-08-02T02:23:00.292Z,0
2017-08-02T02:24:01.999Z,0
2017-08-02T02:25:03.407Z,0
2017-08-02T02:26:04.807Z,0
2017-08-02T02:27:06.498Z,0
2017-08-02T02:28:07.908Z,0
2017-08-02T02:29:09.335Z,0
2017-08-02T02:30:11.024Z,0
2017-08-02T02:31:12.462Z,0
2017-08-02T02:32:13.872Z,0
2017-08-02T02:33:15.564Z,0
2017-08-02T02:34:16.993Z,0
2017-08-02T02:35:18.665Z,0
2017-08-02T02:36:20.060Z,0
2017-08-02T02:37:21.721Z,0
2017-08-02T02:38:23.122Z,0
2017-08-02T02:39:24.567Z,0
2017-08-02T02:40:26.244Z,0
2017-08-02T02:41:27.704Z,0
2017-08-02T02:42:29.104Z,0
2017-08-02T02:43:30.812Z,0
2017-08-02T02:44:32.216Z,0
2017-08-02T02:45:33.616Z,0
2017-08-02T02:46:35.300Z,0
2017-08-02T02:47:36.706Z,0
2017-08-02T02:48:38.134Z,0
2017-08-02T02:49:39.819Z,0
2017-08-02T02:50:41.245Z,0
2017-08-02T02:51:42.647Z,0
2017-08-02T02:52:44.350Z,0
2017-08-02T02:53:45.751Z,0
2017-08-02T02:54:47.470Z,0
2017-08-02T02:55:48.913Z,0
2017-08-02T02:56:50.517Z,0
2017-08-02T02:57:51.920Z,0
2017-08-02T02:58:53.602Z,0
2017-08-02T02:59:55.007Z,0
2017-08-02T03:00:56.771Z,0
2017-08-02T03:01:58.151Z,0
2017-08-02T03:02:59.581Z,0
2017-08-02T03:04:01.215Z,0
2017-08-02T03:05:02.624Z,0
2017-08-02T03:06:04.020Z,0
2017-08-02T03:07:05.539Z,0
2017-08-02T03:08:06.960Z,0
2017-08-02T03:09:08.363Z,0
2017-08-02T03:10:10.065Z,0
2017-08-02T03:11:11.463Z,0
2017-08-02T03:12:12.864Z,0
2017-08-02T03:13:14.382Z,0
2017-08-02T03:14:15.795Z,0
2017-08-02T03:15:17.211Z,0
2017-08-02T03:16:18.910Z,0
2017-08-02T03:17:20.328Z,0
2017-08-02T03:18:21.731Z,0
2017-08-02T03:19:23.435Z,0
2017-08-02T03:20:24.838Z,0
2017-08-02T03:21:26.520Z,0
2017-08-02T03:22:27.954Z,0
2017-08-02T03:23:29.605Z,0
2017-08-02T03:24:31.025Z,0
2017-08-02T03:25:32.897Z,0
2017-08-02T03:26:34.332Z,0
2017-08-02T03:27:35.993Z,0
2017-08-02T03:28:37.391Z,0
2017-08-02T03:29:39.066Z,4
2017-08-02T03:30:40.484Z,4
2017-08-02T03:31:42.153Z,4
2017-08-02T03:32:43.558Z,0
2017-08-02T03:33:45.238Z,0
2017-08-02T03:34:46.656Z,4
2017-08-02T03:35:48.324Z,4
2017-08-02T03:36:49.727Z,4
2017-08-02T03:37:51.408Z,4
2017-08-02T03:38:52.814Z,4
2017-08-02T03:39:54.894Z,8
2017-08-02T03:40:56.303Z,8
2017-08-02T03:41:57.988Z,8
2017-08-02T03:42:59.395Z,12
2017-08-02T03:44:01.075Z,8
2017-08-02T03:45:02.511Z,16
2017-08-02T03:46:04.160Z,16
2017-08-02T03:47:05.563Z,16
2017-08-02T03:48:07.246Z,16
2017-08-02T03:49:08.666Z,20
2017-08-02T03:50:10.088Z,20
2017-08-02T03:51:11.770Z,24
2017-08-02T03:52:13.177Z,28
2017-08-02T03:53:14.609Z,28
2017-08-02T03:54:16.297Z,32
2017-08-02T03:55:17.703Z,36
2017-08-02T03:56:19.106Z,40
2017-08-02T03:57:20.617Z,44
2017-08-02T03:58:22.022Z,48
2017-08-02T03:59:23.428Z,52
2017-08-02T04:00:24.941Z,60
2017-08-02T04:01:26.339Z,60
2017-08-02T04:02:27.742Z,64
2017-08-02T04:03:29.258Z,72
2017-08-02T04:04:30.666Z,80
2017-08-02T04:05:32.068Z,88
2017-08-02T04:06:33.582Z,92
2017-08-02T04:07:37.028Z,96
2017-08-02T04:08:38.399Z,104
2017-08-02T04:09:39.950Z,108
2017-08-02T04:10:41.355Z,112
2017-08-02T04:11:42.760Z,116
2017-08-02T04:12:44.279Z,120
2017-08-02T04:13:45.686Z,128
2017-08-02T04:14:47.095Z,140
2017-08-02T04:15:48.594Z,148
2017-08-02T04:16:50.009Z,164
2017-08-02T04:17:51.677Z,180
2017-08-02T04:18:53.084Z,192
2017-08-02T04:19:54.488Z,200
2017-08-02T04:20:56.000Z,204
2017-08-02T04:21:57.413Z,208
2017-08-02T04:22:58.816Z,204
2017-08-02T04:24:00.254Z,204
2017-08-02T04:25:01.663Z,204
2017-08-02T04:26:03.131Z,200
2017-08-02T04:27:04.562Z,212
2017-08-02T04:28:06.013Z,228
2017-08-02T04:29:07.434Z,252
2017-08-02T04:30:08.893Z,280
2017-08-02T04:31:10.295Z,312
2017-08-02T04:32:11.774Z,356
2017-08-02T04:33:13.179Z,400
2017-08-02T04:34:14.656Z,436
2017-08-02T04:35:16.084Z,460
2017-08-02T04:36:17.538Z,480
2017-08-02T04:37:18.945Z,484
2017-08-02T04:38:20.418Z,480
2017-08-02T04:39:21.825Z,468
2017-08-02T04:40:23.252Z,460
2017-08-02T04:41:24.786Z,452
2017-08-02T04:42:26.189Z,420
2017-08-02T04:43:27.622Z,392
2017-08-02T04:44:29.072Z,396
2017-08-02T04:45:30.476Z,424
2017-08-02T04:46:31.882Z,440
2017-08-02T04:47:33.382Z,448
2017-08-02T04:48:34.784Z,464
2017-08-02T04:49:36.202Z,500
2017-08-02T04:50:37.704Z,532
2017-08-02T04:51:39.107Z,556
2017-08-02T04:52:40.590Z,600
2017-08-02T04:53:41.991Z,664
2017-08-02T04:54:43.478Z,712
2017-08-02T04:55:44.883Z,740
2017-08-02T04:56:46.364Z,756
2017-08-02T04:57:47.800Z,756
2017-08-02T04:58:49.227Z,716
2017-08-02T04:59:50.649Z,676
2017-08-02T05:00:52.110Z,660
2017-08-02T05:01:53.517Z,672
2017-08-02T05:02:54.989Z,664
2017-08-02T05:03:56.396Z,644
2017-08-02T05:04:57.803Z,624
2017-08-02T05:05:59.313Z,600
2017-08-02T05:07:00.716Z,588
2017-08-02T05:08:02.148Z,576
2017-08-02T05:09:03.637Z,560
2017-08-02T05:10:05.041Z,560
2017-08-02T05:11:06.448Z,576
2017-08-02T05:12:07.955Z,628
2017-08-02T05:13:09.359Z,676
2017-08-02T05:14:10.767Z,708
2017-08-02T05:15:12.278Z,704
2017-08-02T05:16:13.687Z,700
2017-08-02T05:17:15.157Z,732
2017-08-02T05:18:16.568Z,788
2017-08-02T05:19:18.039Z,868
2017-08-02T05:20:19.448Z,924
2017-08-02T05:21:20.923Z,940
2017-08-02T05:22:22.334Z,912
2017-08-02T05:23:23.802Z,896
2017-08-02T05:24:25.210Z,856
2017-08-02T05:25:26.683Z,820
2017-08-02T05:26:28.155Z,804
2017-08-02T05:27:29.768Z,832
2017-08-02T05:28:31.177Z,820
2017-08-02T05:29:32.663Z,824
2017-08-02T05:30:34.085Z,812
2017-08-02T05:31:35.530Z,768
2017-08-02T05:32:36.947Z,720
2017-08-02T05:33:38.411Z,672
2017-08-02T05:34:39.816Z,640
2017-08-02T05:35:41.292Z,608
2017-08-02T05:36:42.701Z,576
2017-08-02T05:37:44.173Z,524
2017-08-02T05:38:45.578Z,468
2017-08-02T05:39:46.987Z,420
2017-08-02T05:40:48.504Z,408
2017-08-02T05:41:49.920Z,428
2017-08-02T05:42:51.327Z,464
2017-08-02T05:43:52.818Z,520
2017-08-02T05:44:54.224Z,544
2017-08-02T05:45:55.629Z,516
2017-08-02T05:46:57.143Z,504
2017-08-02T05:47:58.564Z,492
2017-08-02T05:49:00.020Z,484
2017-08-02T05:50:01.442Z,444
2017-08-02T05:51:02.902Z,396
2017-08-02T05:52:04.309Z,348
2017-08-02T05:53:05.783Z,312
2017-08-02T05:54:07.211Z,280
2017-08-02T05:55:08.664Z,248
2017-08-02T05:56:10.076Z,224
2017-08-02T05:57:11.600Z,208
2017-08-02T05:58:13.008Z,220
2017-08-02T05:59:14.682Z,232
2017-08-02T06:00:16.089Z,260
2017-08-02T06:01:17.562Z,284
2017-08-02T06:02:18.972Z,288
2017-08-02T06:03:20.599Z,264
2017-08-02T06:04:22.005Z,240
2017-08-02T06:05:23.416Z,232
2017-08-02T06:06:24.968Z,232
2017-08-02T06:07:26.378Z,232
2017-08-02T06:08:27.790Z,220
2017-08-02T06:09:29.287Z,208
2017-08-02T06:10:30.695Z,180
2017-08-02T06:11:32.101Z,188
2017-08-02T06:12:33.609Z,200
2017-08-02T06:13:35.017Z,228
2017-08-02T06:14:36.424Z,244
2017-08-02T06:15:37.929Z,228
2017-08-02T06:16:39.343Z,204
2017-08-02T06:17:40.809Z,184
2017-08-02T06:18:42.232Z,184
2017-08-02T06:19:43.895Z,204
2017-08-02T06:20:45.302Z,252
2017-08-02T06:21:46.712Z,308
2017-08-02T06:22:48.216Z,288
2017-08-02T06:23:49.673Z,236
2017-08-02T06:24:51.086Z,236
2017-08-02T06:25:52.741Z,268
2017-08-02T06:26:54.150Z,276
2017-08-02T06:27:55.623Z,296
2017-08-02T06:28:57.032Z,312
2017-08-02T06:29:58.504Z,324
2017-08-02T06:30:59.911Z,356
2017-08-02T06:32:01.318Z,448
2017-08-02T06:33:02.827Z,504
2017-08-02T06:34:04.235Z,536
2017-08-02T06:35:05.642Z,504
2017-08-02T06:36:07.146Z,464
2017-08-02T06:37:08.556Z,500
2017-08-02T06:38:10.023Z,532
2017-08-02T06:39:11.432Z,568
2017-08-02T06:40:12.841Z,608
2017-08-02T06:41:14.347Z,540
2017-08-02T06:42:15.756Z,716
2017-08-02T06:43:17.162Z,904
2017-08-02T06:44:18.668Z,912
2017-08-02T06:45:20.077Z,1020
2017-08-02T06:46:21.489Z,904
2017-08-02T06:47:22.989Z,844
2017-08-02T06:48:24.396Z,1020
2017-08-02T06:49:25.810Z,1228
2017-08-02T06:50:27.311Z,1292
2017-08-02T06:51:28.722Z,932
2017-08-02T06:52:30.130Z,1124
2017-08-02T06:53:31.633Z,1088
2017-08-02T06:54:33.041Z,1124
2017-08-02T06:55:34.446Z,1408
2017-08-02T06:56:35.956Z,1612
2017-08-02T06:57:37.362Z,2088
2017-08-02T06:58:38.948Z,2192
2017-08-02T06:59:40.371Z,2240
2017-08-02T07:00:41.921Z,2360
2017-08-02T07:01:43.325Z,2208
2017-08-02T07:02:44.734Z,2028
2017-08-02T07:03:46.241Z,1608
2017-08-02T07:04:47.653Z,2100
2017-08-02T07:05:49.079Z,2332
2017-08-02T07:06:50.563Z,2508
2017-08-02T07:07:51.970Z,2512
2017-08-02T07:08:53.378Z,3472
2017-08-02T07:09:54.885Z,4224
2017-08-02T07:10:56.296Z,4952
2017-08-02T07:11:57.707Z,5380
2017-08-02T07:12:59.203Z,5588
2017-08-02T07:14:00.614Z,5492
2017-08-02T07:15:02.085Z,5204
2017-08-02T07:16:03.492Z,3888
2017-08-02T07:17:04.898Z,3196
2017-08-02T07:18:06.405Z,2836
2017-08-02T07:19:07.810Z,2052
2017-08-02T07:20:09.219Z,2464
2017-08-02T07:21:10.727Z,2980
2017-08-02T07:22:12.141Z,3824
2017-08-02T07:23:13.608Z,3700
2017-08-02T07:24:15.034Z,4188
2017-08-02T07:25:16.492Z,5252
2017-08-02T07:26:17.965Z,6192
2017-08-02T07:27:19.372Z,5124
2017-08-02T07:28:21.013Z,4940
2017-08-02T07:29:22.420Z,4984
2017-08-02T07:30:23.823Z,5412
2017-08-02T07:31:25.335Z,5888
2017-08-02T07:32:26.742Z,5972
2017-08-02T07:33:28.152Z,6152
2017-08-02T07:34:29.669Z,5956
2017-08-02T07:35:31.077Z,5068
2017-08-02T07:36:32.480Z,4072
2017-08-02T07:37:33.975Z,3892
2017-08-02T07:38:35.381Z,3988
2017-08-02T07:39:36.858Z,4584
2017-08-02T07:40:38.261Z,4168
2017-08-02T07:41:39.674Z,4404
2017-08-02T07:42:41.176Z,5656
2017-08-02T07:43:42.581Z,7140
2017-08-02T07:44:43.994Z,7636
2017-08-02T07:45:45.498Z,7188
2017-08-02T07:46:46.909Z,6648
2017-08-02T07:47:48.378Z,7268
2017-08-02T07:48:49.791Z,6412
2017-08-02T07:49:51.264Z,6276
2017-08-02T07:50:52.668Z,6268
2017-08-02T07:51:54.141Z,5888
2017-08-02T07:52:55.553Z,5488
2017-08-02T07:53:57.036Z,5128
2017-08-02T07:54:58.442Z,5064
2017-08-02T07:55:59.852Z,4844
2017-08-02T07:57:01.342Z,4736
2017-08-02T07:58:02.748Z,4960
2017-08-02T07:59:04.156Z,5868
2017-08-02T08:00:05.662Z,6448
2017-08-02T08:01:07.121Z,6616
2017-08-02T08:02:08.537Z,6540
2017-08-02T08:03:09.983Z,6576
2017-08-02T08:04:11.394Z,6440
2017-08-02T08:05:12.865Z,5860
2017-08-02T08:06:14.273Z,5828
2017-08-02T08:07:15.744Z,5864
2017-08-02T08:08:17.155Z,6312
2017-08-02T08:09:18.625Z,6904
2017-08-02T08:10:20.038Z,7472
2017-08-02T08:11:21.506Z,7140
2017-08-02T08:12:22.919Z,5896
2017-08-02T08:13:24.386Z,5588
2017-08-02T08:14:25.796Z,6232
2017-08-02T08:15:27.668Z,7148
2017-08-02T08:16:29.077Z,6628
2017-08-02T08:17:30.557Z,6300
2017-08-02T08:18:31.967Z,7316
2017-08-02T08:19:33.441Z,6776
2017-08-02T08:20:34.844Z,5348
2017-08-02T08:21:36.317Z,6852
2017-08-02T08:22:37.734Z,7704
2017-08-02T08:23:39.198Z,9008
2017-08-02T08:24:40.611Z,6964
2017-08-02T08:25:42.084Z,9424
2017-08-02T08:26:43.491Z,6904
2017-08-02T08:27:44.897Z,9956
2017-08-02T08:28:46.398Z,8104
2017-08-02T08:29:47.810Z,8600
2017-08-02T08:30:49.267Z,7872
2017-08-02T08:31:50.723Z,7124
2017-08-02T08:32:52.135Z,6308
2017-08-02T08:33:53.605Z,4960
2017-08-02T08:34:55.015Z,4476
2017-08-02T08:35:56.484Z,4680
2017-08-02T08:36:57.893Z,7372
2017-08-02T08:37:59.305Z,8040
2017-08-02T08:39:00.795Z,9572
2017-08-02T08:40:02.203Z,8784
2017-08-02T08:41:03.610Z,7888
2017-08-02T08:42:05.115Z,7764
2017-08-02T08:43:06.530Z,8072
2017-08-02T08:44:07.939Z,8316
2017-08-02T08:45:09.436Z,7868
2017-08-02T08:46:10.849Z,7948
2017-08-02T08:47:12.260Z,9028
2017-08-02T08:48:13.758Z,10476
2017-08-02T08:49:15.170Z,12948
2017-08-02T08:50:16.581Z,11476
2017-08-02T08:51:18.085Z,11956
2017-08-02T08:52:19.506Z,11692
2017-08-02T08:53:20.929Z,10384
2017-08-02T08:54:22.402Z,9228
2017-08-02T08:55:23.815Z,8328
2017-08-02T08:56:25.282Z,8648
2017-08-02T08:57:26.690Z,13672
2017-08-02T08:58:28.164Z,4840
2017-08-02T08:59:29.574Z,7336
2017-08-02T09:00:31.046Z,15224
2017-08-02T09:01:32.466Z,13104
2017-08-02T09:02:33.924Z,22368
2017-08-02T09:03:35.337Z,10124
2017-08-02T09:04:36.809Z,22048
2017-08-02T09:05:38.227Z,23168
2017-08-02T09:06:39.693Z,12184
2017-08-02T09:07:41.109Z,26080
2017-08-02T09:08:42.571Z,26560
2017-08-02T09:09:43.988Z,17088
2017-08-02T09:10:45.452Z,22464
2017-08-02T09:11:46.861Z,5936
2017-08-02T09:12:48.274Z,6684
2017-08-02T09:13:49.775Z,15240
2017-08-02T09:14:51.212Z,12708
2017-08-02T09:15:52.624Z,19200
2017-08-02T09:16:55.126Z,38880
2017-08-02T09:17:56.536Z,13984
2017-08-02T09:18:58.017Z,17184
2017-08-02T09:19:59.429Z,28128
2017-08-02T09:21:00.880Z,24960
2017-08-02T09:22:02.295Z,36736
2017-08-02T09:23:03.721Z,35104
2017-08-02T09:24:05.223Z,22528
2017-08-02T09:25:06.661Z,53664
2017-08-02T09:26:08.076Z,29824
2017-08-02T09:27:09.524Z,34496
2017-08-02T09:28:10.938Z,43264
2017-08-02T09:29:12.381Z,70336
2017-08-02T09:30:13.851Z,33056
2017-08-02T09:31:15.280Z,93024
2017-08-02T09:32:16.695Z,72608
2017-08-02T09:33:18.174Z,71168
2017-08-02T09:34:19.589Z,90912
2017-08-02T09:35:21.060Z,61120
2017-08-02T09:36:22.489Z,53568
2017-08-02T09:37:23.907Z,21888
2017-08-02T09:38:25.372Z,77408
2017-08-02T09:39:26.789Z,94336
2017-08-02T09:40:28.200Z,84480
2017-08-02T09:41:29.702Z,103520
2017-08-02T09:42:31.112Z,99104
2017-08-02T09:43:32.530Z,95104
2017-08-02T09:44:34.019Z,88064
2017-08-02T09:45:35.444Z,88192
2017-08-02T09:46:36.899Z,90944
2017-08-02T09:47:38.324Z,99712
2017-08-02T09:48:39.778Z,99584
2017-08-02T09:49:41.213Z,104192
2017-08-02T09:50:42.672Z,89408
2017-08-02T09:51:44.102Z,93472
2017-08-02T09:52:45.644Z,96640
2017-08-02T09:53:47.072Z,80608
2017-08-02T09:54:48.725Z,66016
2017-08-02T09:55:50.201Z,98240
2017-08-02T09:56:51.813Z,98048
2017-08-02T09:57:53.254Z,33024
2017-08-02T09:58:54.687Z,48672
2017-08-02T09:59:56.340Z,30144
2017-08-02T10:00:57.784Z,32608
2017-08-02T10:01:59.199Z,18240
2017-08-02T10:03:00.864Z,27744
2017-08-02T10:04:02.285Z,19168
2017-08-02T10:05:03.713Z,13252
2017-08-02T10:06:05.385Z,15332
2017-08-02T10:07:06.805Z,17408
2017-08-02T10:08:08.246Z,13780
2017-08-02T10:09:10.116Z,16640
2017-08-02T10:10:11.539Z,13788
2017-08-02T10:11:12.956Z,18112
2017-08-02T10:12:14.637Z,14868
2017-08-02T10:13:16.058Z,19328
2017-08-02T10:14:17.477Z,18592
2017-08-02T10:15:19.195Z,28480
2017-08-02T10:16:20.607Z,16640
2017-08-02T10:17:22.034Z,41824
2017-08-02T10:18:23.704Z,24672
2017-08-02T10:19:25.122Z,13364
2017-08-02T10:20:26.540Z,12292
2017-08-02T10:21:29.530Z,10548
2017-08-02T10:22:31.765Z,10800
2017-08-02T10:23:33.767Z,10940
2017-08-02T10:24:35.314Z,30496
2017-08-02T10:25:36.732Z,50144
2017-08-02T10:26:38.152Z,69440
2017-08-02T10:27:39.638Z,58560
2017-08-02T10:28:41.053Z,47104
2017-08-02T10:29:42.469Z,37280
2017-08-02T10:30:43.962Z,33760
2017-08-02T10:31:45.377Z,28384
2017-08-02T10:32:46.796Z,34208
2017-08-02T10:33:48.281Z,32896
2017-08-02T10:34:49.701Z,49216
2017-08-02T10:35:51.121Z,30528
2017-08-02T10:36:52.602Z,43200
2017-08-02T10:37:54.016Z,52096
2017-08-02T10:38:55.437Z,37728
2017-08-02T10:39:56.922Z,35584
2017-08-02T10:40:58.349Z,33088
2017-08-02T10:41:59.763Z,20256
2017-08-02T10:43:01.243Z,19200
2017-08-02T10:44:02.663Z,24448
2017-08-02T10:45:04.083Z,21984
2017-08-02T10:46:05.501Z,20736
2017-08-02T10:47:07.006Z,21664
2017-08-02T10:48:08.443Z,15220
2017-08-02T10:49:09.885Z,16832
2017-08-02T10:50:11.299Z,16000
2017-08-02T10:51:12.768Z,40864
2017-08-02T10:52:14.188Z,36000
2017-08-02T10:53:15.649Z,32512
2017-08-02T10:54:17.063Z,27200
2017-08-02T10:55:18.487Z,20384
2017-08-02T10:56:19.976Z,15936
2017-08-02T10:57:21.438Z,16384
2017-08-02T10:58:22.852Z,19648
2017-08-02T10:59:24.385Z,12212
2017-08-02T11:00:25.803Z,14992
2017-08-02T11:01:27.216Z,15936
2017-08-02T11:02:29.013Z,20960
2017-08-02T11:03:30.441Z,12476
2017-08-02T11:04:31.860Z,12296
2017-08-02T11:05:33.428Z,24032
2017-08-02T11:06:34.842Z,17888
2017-08-02T11:07:36.513Z,32960
2017-08-02T11:08:37.929Z,13408
2017-08-02T11:09:39.601Z,27424
2017-08-02T11:10:41.026Z,24192
2017-08-02T11:11:42.684Z,29216
2017-08-02T11:12:44.100Z,33696
2017-08-02T11:13:45.518Z,14740
2017-08-02T11:14:47.209Z,10000
2017-08-02T11:15:48.626Z,7640
2017-08-02T11:16:50.049Z,6584
2017-08-02T11:17:51.736Z,6528
2017-08-02T11:18:53.147Z,9052
2017-08-02T11:19:54.563Z,11952
2017-08-02T11:20:56.272Z,52832
2017-08-02T11:21:57.690Z,108224
2017-08-02T11:22:59.107Z,36832
2017-08-02T11:24:00.784Z,14736
2017-08-02T11:25:02.208Z,54528
2017-08-02T11:26:03.624Z,69344
2017-08-02T11:27:05.315Z,62336
2017-08-02T11:28:06.731Z,75648
2017-08-02T11:29:08.150Z,67392
2017-08-02T11:30:09.840Z,62080
2017-08-02T11:31:11.291Z,49120
2017-08-02T11:32:12.715Z,37120
2017-08-02T11:33:14.156Z,32736
2017-08-02T11:34:15.589Z,21632
2017-08-02T11:35:17.005Z,13556
2017-08-02T11:36:18.424Z,13708
2017-08-02T11:37:19.839Z,9856
2017-08-02T11:38:21.280Z,7180
2017-08-02T11:39:22.698Z,5164
2017-08-02T11:40:24.113Z,4372
2017-08-02T11:41:25.685Z,4632
2017-08-02T11:42:27.094Z,5608
2017-08-02T11:43:28.778Z,5328
2017-08-02T11:44:30.183Z,4748
2017-08-02T11:45:31.852Z,4720
2017-08-02T11:46:33.268Z,4784
2017-08-02T11:47:34.938Z,5184
2017-08-02T11:48:36.350Z,5340
2017-08-02T11:49:37.818Z,5648
2017-08-02T11:50:39.464Z,6064
2017-08-02T11:51:40.877Z,6144
2017-08-02T11:52:42.308Z,6532
2017-08-02T11:53:43.988Z,6140
2017-08-02T11:54:45.400Z,5384
2017-08-02T11:55:47.073Z,4872
2017-08-02T11:56:48.499Z,4280
2017-08-02T11:57:50.157Z,4632
2017-08-02T11:58:51.577Z,5316
2017-08-02T11:59:53.271Z,6828
2017-08-02T12:00:54.681Z,6968
2017-08-02T12:01:56.330Z,6624
2017-08-02T12:02:57.745Z,5828
2017-08-02T12:03:59.432Z,5584
2017-08-02T12:05:00.846Z,7424
2017-08-02T12:06:02.266Z,8472
2017-08-02T12:07:03.735Z,7360
2017-08-02T12:08:05.149Z,6032
2017-08-02T12:09:06.562Z,5736
2017-08-02T12:10:08.057Z,6528
2017-08-02T12:11:09.468Z,6588
2017-08-02T12:12:11.145Z,6428
2017-08-02T12:13:12.571Z,5196
2017-08-02T12:14:14.223Z,4168
2017-08-02T12:15:15.643Z,4116
2017-08-02T12:16:17.313Z,4232
2017-08-02T12:17:18.727Z,4404
2017-08-02T12:18:20.410Z,4124
2017-08-02T12:19:21.842Z,4020
2017-08-02T12:20:23.255Z,4324
2017-08-02T12:21:24.925Z,4748
2017-08-02T12:22:26.336Z,4848
2017-08-02T12:23:27.750Z,4820
2017-08-02T12:24:29.254Z,4904
2017-08-02T12:25:30.665Z,4944
2017-08-02T12:26:32.177Z,5064
2017-08-02T12:27:33.594Z,5624
2017-08-02T12:28:35.109Z,6140
2017-08-02T12:29:36.524Z,6488
2017-08-02T12:30:37.990Z,6688
2017-08-02T12:31:39.400Z,8032
2017-08-02T12:32:40.869Z,8668
2017-08-02T12:33:42.282Z,8512
2017-08-02T12:34:43.750Z,7528
2017-08-02T12:35:45.161Z,7772
2017-08-02T12:36:46.631Z,8300
2017-08-02T12:37:48.042Z,9120
2017-08-02T12:38:49.532Z,9752
2017-08-02T12:39:50.947Z,12036
2017-08-02T12:40:52.394Z,11296
2017-08-02T12:41:53.805Z,15520
2017-08-02T12:42:55.279Z,14096
2017-08-02T12:43:56.692Z,18624
2017-08-02T12:44:58.099Z,11348
2017-08-02T12:45:59.597Z,10244
2017-08-02T12:47:01.018Z,9960
2017-08-02T12:48:02.427Z,8628
2017-08-02T12:49:03.915Z,7856
2017-08-02T12:50:05.327Z,7476
2017-08-02T12:51:06.739Z,7384
2017-08-02T12:52:08.248Z,8192
2017-08-02T12:53:09.643Z,8280
2017-08-02T12:54:11.050Z,8304
2017-08-02T12:55:12.583Z,9684
2017-08-02T12:56:14.023Z,16864
2017-08-02T12:57:15.447Z,11528
2017-08-02T12:58:16.867Z,9652
2017-08-02T12:59:18.328Z,9432
2017-08-02T13:00:19.748Z,8464
2017-08-02T13:01:21.154Z,9608
2017-08-02T13:02:22.643Z,9788
2017-08-02T13:03:24.062Z,10268
2017-08-02T13:04:25.479Z,8680
2017-08-02T13:05:26.960Z,7964
2017-08-02T13:06:28.373Z,8364
2017-08-02T13:07:29.777Z,8228
2017-08-02T13:08:31.284Z,10008
2017-08-02T13:09:32.696Z,11628
2017-08-02T13:10:34.108Z,8520
2017-08-02T13:11:35.623Z,8948
2017-08-02T13:12:37.036Z,8308
2017-08-02T13:13:38.484Z,9360
2017-08-02T13:14:39.900Z,11040
2017-08-02T13:15:41.366Z,7596
2017-08-02T13:16:42.780Z,7032
2017-08-02T13:17:44.197Z,6264
2017-08-02T13:18:45.628Z,6928
2017-08-02T13:19:47.123Z,6956
2017-08-02T13:20:48.534Z,7036
2017-08-02T13:21:49.952Z,8092
2017-08-02T13:22:51.447Z,7744
2017-08-02T13:23:52.860Z,6700
2017-08-02T13:24:54.275Z,6108
2017-08-02T13:25:55.777Z,6168
2017-08-02T13:26:57.186Z,6228
2017-08-02T13:27:58.598Z,6108
2017-08-02T13:29:00.088Z,5788
2017-08-02T13:30:01.498Z,5372
2017-08-02T13:31:02.917Z,5060
2017-08-02T13:32:04.408Z,4688
2017-08-02T13:33:05.824Z,4544
2017-08-02T13:34:07.304Z,4652
2017-08-02T13:35:08.724Z,4924
2017-08-02T13:36:10.132Z,5440
2017-08-02T13:37:11.635Z,5836
2017-08-02T13:38:13.048Z,5800
2017-08-02T13:39:14.469Z,5592
2017-08-02T13:40:15.962Z,5768
2017-08-02T13:41:17.374Z,6096
2017-08-02T13:42:18.811Z,5860
2017-08-02T13:43:20.231Z,5480
2017-08-02T13:44:21.693Z,5224
2017-08-02T13:45:23.105Z,5244
2017-08-02T13:46:24.572Z,5424
2017-08-02T13:47:25.992Z,5392
2017-08-02T13:48:27.407Z,5020
2017-08-02T13:49:28.820Z,4260
2017-08-02T13:50:30.341Z,3964
2017-08-02T13:51:31.752Z,4244
2017-08-02T13:52:33.173Z,3844
2017-08-02T13:53:34.654Z,3524
2017-08-02T13:54:36.076Z,3412
2017-08-02T13:55:37.484Z,2948
2017-08-02T13:56:38.986Z,2456
2017-08-02T13:57:40.397Z,2000
2017-08-02T13:58:41.809Z,1860
2017-08-02T13:59:43.297Z,1768
2017-08-02T14:00:44.714Z,1832
2017-08-02T14:01:46.125Z,1920